sensor_id;sensor_type;location;lat;lon;timestamp;temperature;humidity
28524;DHT22;15734;50.904;6.922;2023-06-14T00:01:24;18.10;99.90
28524;DHT22;15734;50.904;6.922;2023-06-14T00:03:49;17.80;99.90
28524;DHT22;15734;50.904;6.922;2023-06-14T00:06:15;17.70;99.90
28524;DHT22;15734;50.904;6.922;2023-06-14T00:08:40;17.70;99.90
28524;DHT22;15734;50.904;6.922;2023-06-14T00:11:07;17.60;99.90
28524;DHT22;15734;50.904;6.922;2023-06-14T00:13:32;17.60;99.90
28524;DHT22;15734;50.904;6.922;2023-06-14T00:15:58;17.50;99.90
28524;DHT22;15734;50.904;6.922;2023-06-14T00:18:24;17.40;99.90
28524;DHT22;15734;50.904;6.922;2023-06-14T00:20:51;17.40;99.90
28524;DHT22;15734;50.904;6.922;2023-06-14T00:23:17;17.30;99.90
28524;DHT22;15734;50.904;6.922;2023-06-14T00:25:43;17.30;99.90
28524;DHT22;15734;50.904;6.922;2023-06-14T00:28:08;17.30;99.90
28524;DHT22;15734;50.904;6.922;2023-06-14T00:30:34;17.30;99.90
28524;DHT22;15734;50.904;6.922;2023-06-14T00:32:59;17.10;99.90
28524;DHT22;15734;50.904;6.922;2023-06-14T00:35:25;17.00;99.90
28524;DHT22;15734;50.904;6.922;2023-06-14T00:37:51;17.10;99.90
28524;DHT22;15734;50.904;6.922;2023-06-14T00:40:16;16.90;99.90
28524;DHT22;15734;50.904;6.922;2023-06-14T00:42:42;16.90;99.90
28524;DHT22;15734;50.904;6.922;2023-06-14T00:45:08;16.90;99.90
28524;DHT22;15734;50.904;6.922;2023-06-14T00:47:35;16.90;99.90
28524;DHT22;15734;50.904;6.922;2023-06-14T00:50:03;16.80;99.90
28524;DHT22;15734;50.904;6.922;2023-06-14T00:52:29;16.70;99.90
28524;DHT22;15734;50.904;6.922;2023-06-14T00:54:54;16.80;99.90
28524;DHT22;15734;50.904;6.922;2023-06-14T00:57:20;16.70;99.90
28524;DHT22;15734;50.904;6.922;2023-06-14T00:59:49;16.60;99.90
28524;DHT22;15734;50.904;6.922;2023-06-14T01:02:15;16.50;99.90
28524;DHT22;15734;50.904;6.922;2023-06-14T01:04:42;16.50;99.90
28524;DHT22;15734;50.904;6.922;2023-06-14T01:15:42;16.10;99.90
28524;DHT22;15734;50.904;6.922;2023-06-14T01:18:08;16.00;99.90
28524;DHT22;15734;50.904;6.922;2023-06-14T01:20:42;16.00;99.90
28524;DHT22;15734;50.904;6.922;2023-06-14T01:23:10;16.00;99.90
28524;DHT22;15734;50.904;6.922;2023-06-14T01:25:37;16.00;99.90
28524;DHT22;15734;50.904;6.922;2023-06-14T01:28:05;15.90;99.90
28524;DHT22;15734;50.904;6.922;2023-06-14T01:30:37;15.90;99.90
28524;DHT22;15734;50.904;6.922;2023-06-14T01:33:04;15.80;99.90
28524;DHT22;15734;50.904;6.922;2023-06-14T01:35:30;15.80;99.90
28524;DHT22;15734;50.904;6.922;2023-06-14T01:37:56;15.80;99.90
28524;DHT22;15734;50.904;6.922;2023-06-14T01:40:23;15.70;99.90
28524;DHT22;15734;50.904;6.922;2023-06-14T01:42:50;15.70;99.90
28524;DHT22;15734;50.904;6.922;2023-06-14T01:45:17;15.70;99.90
28524;DHT22;15734;50.904;6.922;2023-06-14T01:47:44;15.60;99.90
28524;DHT22;15734;50.904;6.922;2023-06-14T01:50:10;15.60;99.90
28524;DHT22;15734;50.904;6.922;2023-06-14T01:52:37;15.50;99.90
28524;DHT22;15734;50.904;6.922;2023-06-14T01:55:04;15.40;99.90
28524;DHT22;15734;50.904;6.922;2023-06-14T01:57:30;15.40;99.90
28524;DHT22;15734;50.904;6.922;2023-06-14T01:59:55;15.40;99.90
28524;DHT22;15734;50.904;6.922;2023-06-14T02:02:21;15.40;99.90
28524;DHT22;15734;50.904;6.922;2023-06-14T02:04:47;15.40;99.90
28524;DHT22;15734;50.904;6.922;2023-06-14T02:07:13;15.30;99.90
28524;DHT22;15734;50.904;6.922;2023-06-14T02:09:40;15.30;99.90
28524;DHT22;15734;50.904;6.922;2023-06-14T02:12:05;15.30;99.90
28524;DHT22;15734;50.904;6.922;2023-06-14T02:14:31;15.30;99.90
28524;DHT22;15734;50.904;6.922;2023-06-14T02:16:57;15.30;99.90
28524;DHT22;15734;50.904;6.922;2023-06-14T02:19:22;15.10;99.90
28524;DHT22;15734;50.904;6.922;2023-06-14T02:21:48;15.00;99.90
28524;DHT22;15734;50.904;6.922;2023-06-14T02:24:13;15.00;99.90
28524;DHT22;15734;50.904;6.922;2023-06-14T02:26:39;15.00;99.90
28524;DHT22;15734;50.904;6.922;2023-06-14T02:29:06;14.90;99.90
28524;DHT22;15734;50.904;6.922;2023-06-14T02:31:35;14.90;99.90
28524;DHT22;15734;50.904;6.922;2023-06-14T02:34:00;14.80;99.90
28524;DHT22;15734;50.904;6.922;2023-06-14T02:36:26;14.80;99.90
28524;DHT22;15734;50.904;6.922;2023-06-14T02:38:51;14.70;99.90
28524;DHT22;15734;50.904;6.922;2023-06-14T02:41:19;14.70;99.90
28524;DHT22;15734;50.904;6.922;2023-06-14T02:43:45;14.70;99.90
28524;DHT22;15734;50.904;6.922;2023-06-14T02:46:10;14.70;99.90
28524;DHT22;15734;50.904;6.922;2023-06-14T02:48:36;14.70;99.90
28524;DHT22;15734;50.904;6.922;2023-06-14T02:51:02;14.70;99.90
28524;DHT22;15734;50.904;6.922;2023-06-14T02:53:27;14.70;99.90
28524;DHT22;15734;50.904;6.922;2023-06-14T02:55:53;14.70;99.90
28524;DHT22;15734;50.904;6.922;2023-06-14T02:58:20;14.70;99.90
28524;DHT22;15734;50.904;6.922;2023-06-14T03:00:46;14.70;99.90
28524;DHT22;15734;50.904;6.922;2023-06-14T03:03:12;14.60;99.90
28524;DHT22;15734;50.904;6.922;2023-06-14T03:05:44;14.60;99.90
28524;DHT22;15734;50.904;6.922;2023-06-14T03:08:17;14.60;99.90
28524;DHT22;15734;50.904;6.922;2023-06-14T03:10:46;14.50;99.90
28524;DHT22;15734;50.904;6.922;2023-06-14T03:13:12;14.40;99.90
28524;DHT22;15734;50.904;6.922;2023-06-14T03:15:38;14.40;99.90
28524;DHT22;15734;50.904;6.922;2023-06-14T03:18:04;14.30;99.90
28524;DHT22;15734;50.904;6.922;2023-06-14T03:20:30;14.30;99.90
28524;DHT22;15734;50.904;6.922;2023-06-14T03:23:02;14.30;99.90
28524;DHT22;15734;50.904;6.922;2023-06-14T03:25:29;14.30;99.90
28524;DHT22;15734;50.904;6.922;2023-06-14T03:28:01;14.20;99.90
28524;DHT22;15734;50.904;6.922;2023-06-14T03:30:26;14.20;99.90
28524;DHT22;15734;50.904;6.922;2023-06-14T03:32:52;14.20;99.90
28524;DHT22;15734;50.904;6.922;2023-06-14T03:35:18;14.20;99.90
28524;DHT22;15734;50.904;6.922;2023-06-14T03:37:44;14.20;99.90
28524;DHT22;15734;50.904;6.922;2023-06-14T03:40:12;14.20;99.90
28524;DHT22;15734;50.904;6.922;2023-06-14T03:42:38;14.20;99.90
28524;DHT22;15734;50.904;6.922;2023-06-14T03:45:04;14.20;99.90
28524;DHT22;15734;50.904;6.922;2023-06-14T03:47:30;14.20;99.90
28524;DHT22;15734;50.904;6.922;2023-06-14T03:49:56;14.20;99.90
28524;DHT22;15734;50.904;6.922;2023-06-14T03:52:21;14.20;99.90
28524;DHT22;15734;50.904;6.922;2023-06-14T03:54:48;14.30;99.90
28524;DHT22;15734;50.904;6.922;2023-06-14T03:57:15;14.30;99.90
28524;DHT22;15734;50.904;6.922;2023-06-14T03:59:40;14.30;99.90
28524;DHT22;15734;50.904;6.922;2023-06-14T04:02:06;14.30;99.90
28524;DHT22;15734;50.904;6.922;2023-06-14T04:04:32;14.30;99.90
28524;DHT22;15734;50.904;6.922;2023-06-14T04:06:58;14.30;99.90
28524;DHT22;15734;50.904;6.922;2023-06-14T04:09:26;14.30;99.90
28524;DHT22;15734;50.904;6.922;2023-06-14T04:11:52;14.30;99.90
28524;DHT22;15734;50.904;6.922;2023-06-14T04:14:19;14.30;99.90
28524;DHT22;15734;50.904;6.922;2023-06-14T04:16:48;14.30;99.90
28524;DHT22;15734;50.904;6.922;2023-06-14T04:19:15;14.40;99.90
28524;DHT22;15734;50.904;6.922;2023-06-14T04:21:41;14.40;99.90
28524;DHT22;15734;50.904;6.922;2023-06-14T04:24:07;14.40;99.90
28524;DHT22;15734;50.904;6.922;2023-06-14T04:26:38;14.50;99.90
28524;DHT22;15734;50.904;6.922;2023-06-14T04:29:05;14.50;99.90
28524;DHT22;15734;50.904;6.922;2023-06-14T04:31:31;14.60;99.90
28524;DHT22;15734;50.904;6.922;2023-06-14T04:33:59;14.60;99.90
28524;DHT22;15734;50.904;6.922;2023-06-14T04:36:25;14.60;99.90
28524;DHT22;15734;50.904;6.922;2023-06-14T04:38:52;14.70;99.90
28524;DHT22;15734;50.904;6.922;2023-06-14T04:41:22;14.70;99.90
28524;DHT22;15734;50.904;6.922;2023-06-14T04:43:49;14.70;99.90
28524;DHT22;15734;50.904;6.922;2023-06-14T04:46:14;14.80;99.90
28524;DHT22;15734;50.904;6.922;2023-06-14T04:48:41;14.80;99.90
28524;DHT22;15734;50.904;6.922;2023-06-14T04:51:08;14.90;99.90
28524;DHT22;15734;50.904;6.922;2023-06-14T04:53:34;15.00;99.90
28524;DHT22;15734;50.904;6.922;2023-06-14T04:56:00;15.00;99.90
28524;DHT22;15734;50.904;6.922;2023-06-14T04:58:29;15.10;99.90
28524;DHT22;15734;50.904;6.922;2023-06-14T05:00:55;15.20;99.90
28524;DHT22;15734;50.904;6.922;2023-06-14T05:03:22;15.20;99.90
28524;DHT22;15734;50.904;6.922;2023-06-14T05:05:49;15.30;99.90
28524;DHT22;15734;50.904;6.922;2023-06-14T05:08:16;15.40;99.90
28524;DHT22;15734;50.904;6.922;2023-06-14T05:10:41;15.50;99.90
28524;DHT22;15734;50.904;6.922;2023-06-14T05:13:07;15.60;99.90
28524;DHT22;15734;50.904;6.922;2023-06-14T05:15:33;15.60;99.90
28524;DHT22;15734;50.904;6.922;2023-06-14T05:17:59;15.70;99.90
28524;DHT22;15734;50.904;6.922;2023-06-14T05:20:25;15.80;99.90
28524;DHT22;15734;50.904;6.922;2023-06-14T05:22:53;15.90;99.90
28524;DHT22;15734;50.904;6.922;2023-06-14T05:25:19;16.00;99.90
28524;DHT22;15734;50.904;6.922;2023-06-14T05:27:46;16.10;99.90
28524;DHT22;15734;50.904;6.922;2023-06-14T05:30:13;16.10;99.90
28524;DHT22;15734;50.904;6.922;2023-06-14T05:32:38;16.20;99.90
28524;DHT22;15734;50.904;6.922;2023-06-14T05:35:04;16.30;99.90
28524;DHT22;15734;50.904;6.922;2023-06-14T05:37:31;16.50;99.90
28524;DHT22;15734;50.904;6.922;2023-06-14T05:39:56;16.70;99.90
28524;DHT22;15734;50.904;6.922;2023-06-14T05:42:22;16.80;99.90
28524;DHT22;15734;50.904;6.922;2023-06-14T05:44:47;16.90;99.90
28524;DHT22;15734;50.904;6.922;2023-06-14T05:47:13;17.00;99.90
28524;DHT22;15734;50.904;6.922;2023-06-14T05:49:38;17.10;99.90
28524;DHT22;15734;50.904;6.922;2023-06-14T05:52:04;17.20;99.90
28524;DHT22;15734;50.904;6.922;2023-06-14T05:54:30;17.30;99.90
28524;DHT22;15734;50.904;6.922;2023-06-14T05:56:55;17.30;99.90
28524;DHT22;15734;50.904;6.922;2023-06-14T05:59:26;17.40;99.90
28524;DHT22;15734;50.904;6.922;2023-06-14T06:01:52;17.50;99.90
28524;DHT22;15734;50.904;6.922;2023-06-14T06:04:17;17.60;99.90
28524;DHT22;15734;50.904;6.922;2023-06-14T06:06:43;17.60;99.90
28524;DHT22;15734;50.904;6.922;2023-06-14T06:09:08;17.70;99.90
28524;DHT22;15734;50.904;6.922;2023-06-14T06:11:34;17.90;99.90
28524;DHT22;15734;50.904;6.922;2023-06-14T06:14:00;17.90;99.90
28524;DHT22;15734;50.904;6.922;2023-06-14T06:16:26;18.00;99.90
28524;DHT22;15734;50.904;6.922;2023-06-14T06:18:51;18.00;99.90
28524;DHT22;15734;50.904;6.922;2023-06-14T06:21:17;18.10;99.90
28524;DHT22;15734;50.904;6.922;2023-06-14T06:23:43;18.20;99.90
28524;DHT22;15734;50.904;6.922;2023-06-14T06:26:08;18.20;99.90
28524;DHT22;15734;50.904;6.922;2023-06-14T06:28:34;18.20;99.90
28524;DHT22;15734;50.904;6.922;2023-06-14T06:31:00;18.30;99.90
28524;DHT22;15734;50.904;6.922;2023-06-14T06:33:25;18.40;99.90
28524;DHT22;15734;50.904;6.922;2023-06-14T06:35:51;18.40;99.90
28524;DHT22;15734;50.904;6.922;2023-06-14T06:38:16;18.40;99.90
28524;DHT22;15734;50.904;6.922;2023-06-14T06:40:44;18.50;99.90
28524;DHT22;15734;50.904;6.922;2023-06-14T06:43:09;18.60;99.90
28524;DHT22;15734;50.904;6.922;2023-06-14T06:45:41;18.60;99.90
28524;DHT22;15734;50.904;6.922;2023-06-14T06:48:07;18.70;99.90
28524;DHT22;15734;50.904;6.922;2023-06-14T06:50:32;18.70;99.90
28524;DHT22;15734;50.904;6.922;2023-06-14T06:52:58;18.90;99.90
28524;DHT22;15734;50.904;6.922;2023-06-14T06:55:23;18.90;99.90
28524;DHT22;15734;50.904;6.922;2023-06-14T06:57:49;19.00;99.90
28524;DHT22;15734;50.904;6.922;2023-06-14T07:00:19;19.00;99.90
28524;DHT22;15734;50.904;6.922;2023-06-14T07:02:45;19.10;99.90
28524;DHT22;15734;50.904;6.922;2023-06-14T07:05:11;19.10;99.90
28524;DHT22;15734;50.904;6.922;2023-06-14T07:07:36;19.20;99.90
28524;DHT22;15734;50.904;6.922;2023-06-14T07:10:03;19.20;99.90
28524;DHT22;15734;50.904;6.922;2023-06-14T07:12:31;19.30;99.90
28524;DHT22;15734;50.904;6.922;2023-06-14T07:14:59;19.50;99.90
28524;DHT22;15734;50.904;6.922;2023-06-14T07:17:25;19.60;99.90
28524;DHT22;15734;50.904;6.922;2023-06-14T07:19:51;19.60;99.90
28524;DHT22;15734;50.904;6.922;2023-06-14T07:22:17;19.70;99.90
28524;DHT22;15734;50.904;6.922;2023-06-14T07:24:43;19.70;99.90
28524;DHT22;15734;50.904;6.922;2023-06-14T07:27:08;19.80;99.90
28524;DHT22;15734;50.904;6.922;2023-06-14T07:29:34;19.80;99.90
28524;DHT22;15734;50.904;6.922;2023-06-14T07:32:00;19.90;99.90
28524;DHT22;15734;50.904;6.922;2023-06-14T07:34:25;19.90;99.90
28524;DHT22;15734;50.904;6.922;2023-06-14T07:36:51;20.00;99.90
28524;DHT22;15734;50.904;6.922;2023-06-14T07:39:17;20.00;99.90
28524;DHT22;15734;50.904;6.922;2023-06-14T07:41:42;20.00;99.90
28524;DHT22;15734;50.904;6.922;2023-06-14T07:44:08;20.10;99.90
28524;DHT22;15734;50.904;6.922;2023-06-14T07:46:33;20.30;99.90
28524;DHT22;15734;50.904;6.922;2023-06-14T07:49:00;20.40;99.90
28524;DHT22;15734;50.904;6.922;2023-06-14T07:51:25;20.50;99.90
28524;DHT22;15734;50.904;6.922;2023-06-14T07:53:51;20.60;99.90
28524;DHT22;15734;50.904;6.922;2023-06-14T07:56:17;20.60;99.90
28524;DHT22;15734;50.904;6.922;2023-06-14T07:58:42;20.60;99.90
28524;DHT22;15734;50.904;6.922;2023-06-14T08:01:09;20.70;99.90
28524;DHT22;15734;50.904;6.922;2023-06-14T08:03:34;20.80;99.90
28524;DHT22;15734;50.904;6.922;2023-06-14T08:06:00;20.80;96.80
28524;DHT22;15734;50.904;6.922;2023-06-14T08:08:26;21.00;94.90
28524;DHT22;15734;50.904;6.922;2023-06-14T08:10:52;21.00;94.70
28524;DHT22;15734;50.904;6.922;2023-06-14T08:13:17;21.10;92.20
28524;DHT22;15734;50.904;6.922;2023-06-14T08:15:43;21.30;92.40
28524;DHT22;15734;50.904;6.922;2023-06-14T08:18:09;21.30;92.40
28524;DHT22;15734;50.904;6.922;2023-06-14T08:20:35;21.40;91.70
28524;DHT22;15734;50.904;6.922;2023-06-14T08:23:02;21.50;94.70
28524;DHT22;15734;50.904;6.922;2023-06-14T08:25:27;21.60;92.90
28524;DHT22;15734;50.904;6.922;2023-06-14T08:27:53;21.60;91.70
28524;DHT22;15734;50.904;6.922;2023-06-14T08:30:18;21.70;92.70
28524;DHT22;15734;50.904;6.922;2023-06-14T08:32:44;21.70;91.70
28524;DHT22;15734;50.904;6.922;2023-06-14T08:35:10;21.70;86.60
28524;DHT22;15734;50.904;6.922;2023-06-14T08:37:42;21.80;88.60
28524;DHT22;15734;50.904;6.922;2023-06-14T08:40:23;21.90;86.00
28524;DHT22;15734;50.904;6.922;2023-06-14T08:42:53;22.00;81.20
28524;DHT22;15734;50.904;6.922;2023-06-14T08:45:20;22.10;83.00
28524;DHT22;15734;50.904;6.922;2023-06-14T08:47:47;22.20;86.70
28524;DHT22;15734;50.904;6.922;2023-06-14T08:50:20;22.20;85.60
28524;DHT22;15734;50.904;6.922;2023-06-14T08:52:45;22.30;86.10
28524;DHT22;15734;50.904;6.922;2023-06-14T08:55:15;22.30;79.50
28524;DHT22;15734;50.904;6.922;2023-06-14T08:57:43;22.30;80.60
28524;DHT22;15734;50.904;6.922;2023-06-14T09:00:12;22.50;82.80
28524;DHT22;15734;50.904;6.922;2023-06-14T09:02:39;22.60;78.50
28524;DHT22;15734;50.904;6.922;2023-06-14T09:05:12;22.60;76.30
28524;DHT22;15734;50.904;6.922;2023-06-14T09:07:44;22.80;73.40
28524;DHT22;15734;50.904;6.922;2023-06-14T09:10:11;22.80;82.20
28524;DHT22;15734;50.904;6.922;2023-06-14T09:12:37;23.00;77.80
28524;DHT22;15734;50.904;6.922;2023-06-14T09:15:06;23.00;82.50
28524;DHT22;15734;50.904;6.922;2023-06-14T09:17:35;23.10;72.40
28524;DHT22;15734;50.904;6.922;2023-06-14T09:20:05;23.00;77.70
28524;DHT22;15734;50.904;6.922;2023-06-14T09:22:39;23.00;80.70
28524;DHT22;15734;50.904;6.922;2023-06-14T09:25:05;23.10;80.20
28524;DHT22;15734;50.904;6.922;2023-06-14T09:27:32;23.20;76.40
28524;DHT22;15734;50.904;6.922;2023-06-14T09:29:57;23.40;75.40
28524;DHT22;15734;50.904;6.922;2023-06-14T09:32:23;23.50;76.30
28524;DHT22;15734;50.904;6.922;2023-06-14T09:34:49;23.50;71.20
28524;DHT22;15734;50.904;6.922;2023-06-14T09:37:30;23.50;71.00
28524;DHT22;15734;50.904;6.922;2023-06-14T09:39:57;23.60;72.50
28524;DHT22;15734;50.904;6.922;2023-06-14T09:42:22;23.70;69.80
28524;DHT22;15734;50.904;6.922;2023-06-14T09:44:51;23.80;74.00
28524;DHT22;15734;50.904;6.922;2023-06-14T09:47:18;24.00;72.70
28524;DHT22;15734;50.904;6.922;2023-06-14T09:49:44;24.20;67.90
28524;DHT22;15734;50.904;6.922;2023-06-14T09:52:20;24.20;67.60
28524;DHT22;15734;50.904;6.922;2023-06-14T09:54:47;24.10;66.60
28524;DHT22;15734;50.904;6.922;2023-06-14T09:57:14;24.00;72.20
28524;DHT22;15734;50.904;6.922;2023-06-14T09:59:45;24.20;67.40
28524;DHT22;15734;50.904;6.922;2023-06-14T10:02:35;24.30;66.90
28524;DHT22;15734;50.904;6.922;2023-06-14T10:05:10;24.50;67.50
28524;DHT22;15734;50.904;6.922;2023-06-14T10:07:42;24.60;67.00
28524;DHT22;15734;50.904;6.922;2023-06-14T10:10:10;24.80;65.10
28524;DHT22;15734;50.904;6.922;2023-06-14T10:12:36;24.80;67.60
28524;DHT22;15734;50.904;6.922;2023-06-14T10:15:02;25.10;64.30
28524;DHT22;15734;50.904;6.922;2023-06-14T10:17:33;25.20;65.90
28524;DHT22;15734;50.904;6.922;2023-06-14T10:20:45;25.20;63.70
28524;DHT22;15734;50.904;6.922;2023-06-14T10:23:17;25.10;62.90
28524;DHT22;15734;50.904;6.922;2023-06-14T10:25:44;25.00;62.30
28524;DHT22;15734;50.904;6.922;2023-06-14T10:28:18;25.20;63.70
28524;DHT22;15734;50.904;6.922;2023-06-14T10:31:01;25.50;64.30
28524;DHT22;15734;50.904;6.922;2023-06-14T10:33:27;25.50;61.30
28524;DHT22;15734;50.904;6.922;2023-06-14T10:36:07;25.30;59.80
28524;DHT22;15734;50.904;6.922;2023-06-14T10:38:33;25.20;60.30
28524;DHT22;15734;50.904;6.922;2023-06-14T10:41:00;25.20;61.70
28524;DHT22;15734;50.904;6.922;2023-06-14T10:43:26;25.30;61.00
28524;DHT22;15734;50.904;6.922;2023-06-14T10:46:17;25.60;60.70
28524;DHT22;15734;50.904;6.922;2023-06-14T10:48:44;25.60;60.70
28524;DHT22;15734;50.904;6.922;2023-06-14T10:51:19;25.80;60.00
28524;DHT22;15734;50.904;6.922;2023-06-14T10:53:49;25.80;59.50
28524;DHT22;15734;50.904;6.922;2023-06-14T10:56:32;25.90;59.30
28524;DHT22;15734;50.904;6.922;2023-06-14T10:58:58;26.20;59.60
28524;DHT22;15734;50.904;6.922;2023-06-14T11:01:36;26.30;60.20
28524;DHT22;15734;50.904;6.922;2023-06-14T11:04:09;26.80;62.20
28524;DHT22;15734;50.904;6.922;2023-06-14T11:06:50;27.20;63.40
28524;DHT22;15734;50.904;6.922;2023-06-14T11:12:23;27.60;58.50
28524;DHT22;15734;50.904;6.922;2023-06-14T11:14:50;27.40;62.80
28524;DHT22;15734;50.904;6.922;2023-06-14T11:17:15;27.60;64.60
28524;DHT22;15734;50.904;6.922;2023-06-14T11:19:41;27.50;58.50
28524;DHT22;15734;50.904;6.922;2023-06-14T11:22:06;27.60;61.40
28524;DHT22;15734;50.904;6.922;2023-06-14T11:24:33;27.80;57.60
28524;DHT22;15734;50.904;6.922;2023-06-14T11:26:58;27.00;62.30
28524;DHT22;15734;50.904;6.922;2023-06-14T11:29:24;27.00;63.00
28524;DHT22;15734;50.904;6.922;2023-06-14T11:31:51;27.30;64.00
28524;DHT22;15734;50.904;6.922;2023-06-14T11:34:17;27.50;65.20
28524;DHT22;15734;50.904;6.922;2023-06-14T11:36:43;27.20;62.20
28524;DHT22;15734;50.904;6.922;2023-06-14T11:39:09;26.50;69.70
28524;DHT22;15734;50.904;6.922;2023-06-14T11:41:52;26.80;70.70
28524;DHT22;15734;50.904;6.922;2023-06-14T11:44:18;27.10;67.20
28524;DHT22;15734;50.904;6.922;2023-06-14T11:46:44;27.30;65.30
28524;DHT22;15734;50.904;6.922;2023-06-14T11:49:10;27.90;69.00
28524;DHT22;15734;50.904;6.922;2023-06-14T11:51:37;28.20;64.20
28524;DHT22;15734;50.904;6.922;2023-06-14T11:54:03;27.90;65.50
28524;DHT22;15734;50.904;6.922;2023-06-14T11:56:31;28.40;64.30
28524;DHT22;15734;50.904;6.922;2023-06-14T11:58:57;28.30;61.10
28524;DHT22;15734;50.904;6.922;2023-06-14T12:01:23;27.60;62.20
28524;DHT22;15734;50.904;6.922;2023-06-14T12:03:50;27.50;63.30
28524;DHT22;15734;50.904;6.922;2023-06-14T12:06:16;27.60;62.40
28524;DHT22;15734;50.904;6.922;2023-06-14T12:08:44;27.70;65.70
28524;DHT22;15734;50.904;6.922;2023-06-14T12:11:12;28.30;62.10
28524;DHT22;15734;50.904;6.922;2023-06-14T12:13:39;28.50;66.60
28524;DHT22;15734;50.904;6.922;2023-06-14T12:16:09;27.80;63.40
28524;DHT22;15734;50.904;6.922;2023-06-14T12:18:36;27.70;65.20
28524;DHT22;15734;50.904;6.922;2023-06-14T12:21:09;27.90;65.70
28524;DHT22;15734;50.904;6.922;2023-06-14T12:23:42;27.90;63.90
28524;DHT22;15734;50.904;6.922;2023-06-14T12:26:08;27.40;64.30
28524;DHT22;15734;50.904;6.922;2023-06-14T12:28:33;27.10;65.50
28524;DHT22;15734;50.904;6.922;2023-06-14T12:30:59;27.10;62.30
28524;DHT22;15734;50.904;6.922;2023-06-14T12:33:25;27.20;65.40
28524;DHT22;15734;50.904;6.922;2023-06-14T12:35:53;27.20;68.90
28524;DHT22;15734;50.904;6.922;2023-06-14T12:38:20;26.90;68.00
28524;DHT22;15734;50.904;6.922;2023-06-14T12:40:46;27.00;72.70
28524;DHT22;15734;50.904;6.922;2023-06-14T12:43:12;27.30;68.80
28524;DHT22;15734;50.904;6.922;2023-06-14T12:45:37;27.70;65.90
28524;DHT22;15734;50.904;6.922;2023-06-14T12:48:03;28.40;70.20
28524;DHT22;15734;50.904;6.922;2023-06-14T12:50:29;28.90;67.80
28524;DHT22;15734;50.904;6.922;2023-06-14T12:52:54;29.30;64.10
28524;DHT22;15734;50.904;6.922;2023-06-14T12:55:20;29.90;58.60
28524;DHT22;15734;50.904;6.922;2023-06-14T12:57:45;29.40;61.90
28524;DHT22;15734;50.904;6.922;2023-06-14T13:00:11;29.20;60.70
28524;DHT22;15734;50.904;6.922;2023-06-14T13:02:38;28.30;62.60
28524;DHT22;15734;50.904;6.922;2023-06-14T13:05:04;27.70;64.50
28524;DHT22;15734;50.904;6.922;2023-06-14T13:07:30;27.80;68.00
28524;DHT22;15734;50.904;6.922;2023-06-14T13:09:55;28.20;64.00
28524;DHT22;15734;50.904;6.922;2023-06-14T13:12:21;28.20;63.30
28524;DHT22;15734;50.904;6.922;2023-06-14T13:14:46;28.30;60.10
28524;DHT22;15734;50.904;6.922;2023-06-14T13:17:12;28.80;63.00
28524;DHT22;15734;50.904;6.922;2023-06-14T13:19:37;28.80;62.70
28524;DHT22;15734;50.904;6.922;2023-06-14T13:22:03;29.10;62.90
28524;DHT22;15734;50.904;6.922;2023-06-14T13:24:29;28.30;60.00
28524;DHT22;15734;50.904;6.922;2023-06-14T13:26:56;27.30;60.30
28524;DHT22;15734;50.904;6.922;2023-06-14T13:29:23;27.40;63.00
28524;DHT22;15734;50.904;6.922;2023-06-14T13:31:49;27.80;61.40
28524;DHT22;15734;50.904;6.922;2023-06-14T13:34:14;28.20;63.40
28524;DHT22;15734;50.904;6.922;2023-06-14T13:36:40;28.20;61.30
28524;DHT22;15734;50.904;6.922;2023-06-14T13:39:06;28.20;62.90
28524;DHT22;15734;50.904;6.922;2023-06-14T13:41:31;28.20;62.80
28524;DHT22;15734;50.904;6.922;2023-06-14T13:44:00;28.60;63.30
28524;DHT22;15734;50.904;6.922;2023-06-14T13:46:25;28.70;63.10
28524;DHT22;15734;50.904;6.922;2023-06-14T13:48:51;28.70;59.80
28524;DHT22;15734;50.904;6.922;2023-06-14T13:51:17;28.50;62.60
28524;DHT22;15734;50.904;6.922;2023-06-14T13:53:47;28.60;62.30
28524;DHT22;15734;50.904;6.922;2023-06-14T13:56:13;28.90;60.40
28524;DHT22;15734;50.904;6.922;2023-06-14T13:58:38;28.90;59.30
28524;DHT22;15734;50.904;6.922;2023-06-14T14:01:04;28.90;59.10
28524;DHT22;15734;50.904;6.922;2023-06-14T14:03:30;29.00;58.80
28524;DHT22;15734;50.904;6.922;2023-06-14T14:05:56;29.10;58.90
28524;DHT22;15734;50.904;6.922;2023-06-14T14:08:21;28.80;56.90
28524;DHT22;15734;50.904;6.922;2023-06-14T14:10:47;28.90;58.90
28524;DHT22;15734;50.904;6.922;2023-06-14T14:13:13;28.90;59.50
28524;DHT22;15734;50.904;6.922;2023-06-14T14:15:38;28.80;58.60
28524;DHT22;15734;50.904;6.922;2023-06-14T14:18:04;28.80;60.00
28524;DHT22;15734;50.904;6.922;2023-06-14T14:20:31;28.70;58.10
28524;DHT22;15734;50.904;6.922;2023-06-14T14:22:56;29.00;58.20
28524;DHT22;15734;50.904;6.922;2023-06-14T14:25:22;29.70;55.30
28524;DHT22;15734;50.904;6.922;2023-06-14T14:27:47;29.10;57.50
28524;DHT22;15734;50.904;6.922;2023-06-14T14:30:13;28.80;56.70
28524;DHT22;15734;50.904;6.922;2023-06-14T14:32:40;28.40;56.70
28524;DHT22;15734;50.904;6.922;2023-06-14T14:35:06;28.50;57.00
28524;DHT22;15734;50.904;6.922;2023-06-14T14:37:32;28.60;58.20
28524;DHT22;15734;50.904;6.922;2023-06-14T14:39:57;29.30;57.10
28524;DHT22;15734;50.904;6.922;2023-06-14T14:42:23;29.30;59.40
28524;DHT22;15734;50.904;6.922;2023-06-14T14:44:48;29.10;59.60
28524;DHT22;15734;50.904;6.922;2023-06-14T14:47:14;28.90;59.00
28524;DHT22;15734;50.904;6.922;2023-06-14T14:49:39;28.80;59.10
28524;DHT22;15734;50.904;6.922;2023-06-14T14:52:05;28.70;57.70
28524;DHT22;15734;50.904;6.922;2023-06-14T14:54:31;28.40;59.50
28524;DHT22;15734;50.904;6.922;2023-06-14T14:56:56;28.50;60.00
28524;DHT22;15734;50.904;6.922;2023-06-14T14:59:22;28.90;58.40
28524;DHT22;15734;50.904;6.922;2023-06-14T15:01:48;29.30;56.40
28524;DHT22;15734;50.904;6.922;2023-06-14T15:04:13;29.10;57.50
28524;DHT22;15734;50.904;6.922;2023-06-14T15:06:39;29.40;56.80
28524;DHT22;15734;50.904;6.922;2023-06-14T15:09:07;28.70;55.40
28524;DHT22;15734;50.904;6.922;2023-06-14T15:11:33;28.30;59.20
28524;DHT22;15734;50.904;6.922;2023-06-14T15:13:58;28.70;57.20
28524;DHT22;15734;50.904;6.922;2023-06-14T15:16:24;28.70;58.10
28524;DHT22;15734;50.904;6.922;2023-06-14T15:18:49;28.80;57.00
28524;DHT22;15734;50.904;6.922;2023-06-14T15:21:15;29.20;56.30
28524;DHT22;15734;50.904;6.922;2023-06-14T15:23:41;29.10;56.50
28524;DHT22;15734;50.904;6.922;2023-06-14T15:26:06;28.80;56.20
28524;DHT22;15734;50.904;6.922;2023-06-14T15:28:32;28.20;56.70
28524;DHT22;15734;50.904;6.922;2023-06-14T15:30:58;27.90;57.40
28524;DHT22;15734;50.904;6.922;2023-06-14T15:33:24;27.60;58.50
28524;DHT22;15734;50.904;6.922;2023-06-14T15:35:50;27.60;58.50
28524;DHT22;15734;50.904;6.922;2023-06-14T15:38:16;28.10;58.40
28524;DHT22;15734;50.904;6.922;2023-06-14T15:40:41;28.30;57.50